Time;durP1;ratioP1;P1;durP2;ratioP2;P2;SDS_P1;SDS_P2;PMS_P1;PMS_P2;Temp;Humidity;BMP_temperature;BMP_pressure;BME280_temperature;BME280_humidity;BME280_pressure;Samples;Min_cycle;Max_cycle;Signal;HPM_P1;HPM_P2
2023/10/27 00:02:23;;;;;;;4.70;2.72;;;8.10;66.80;;;;;;5017909;28;20113;-82
2023/10/27 00:04:49;;;;;;;3.30;2.92;;;8.00;66.80;;;;;;5014070;28;20038;-82
2023/10/27 00:07:15;;;;;;;3.53;2.80;;;8.00;66.80;;;;;;5020889;28;20034;-83
2023/10/27 00:09:41;;;;;;;5.68;3.22;;;8.10;66.90;;;;;;5010139;28;20537;-83
2023/10/27 00:12:07;;;;;;;3.33;2.70;;;8.00;66.80;;;;;;5037255;28;20088;-82
2023/10/27 00:14:34;;;;;;;4.10;3.22;;;8.10;66.90;;;;;;5025093;28;20034;-82
2023/10/27 00:17:00;;;;;;;3.85;3.03;;;8.00;66.90;;;;;;5021066;28;20083;-82
2023/10/27 00:19:26;;;;;;;4.40;2.97;;;8.00;66.90;;;;;;5035638;28;20037;-82
2023/10/27 00:21:52;;;;;;;3.10;2.67;;;8.00;66.90;;;;;;5021848;28;20029;-82
2023/10/27 00:24:18;;;;;;;5.07;3.03;;;8.00;66.90;;;;;;5020550;28;20396;-83
2023/10/27 00:26:44;;;;;;;3.53;2.67;;;8.00;67.00;;;;;;4993861;28;20038;-79
2023/10/27 00:29:10;;;;;;;3.13;2.75;;;8.00;67.00;;;;;;5011965;28;20128;-78
2023/10/27 00:31:36;;;;;;;3.65;2.92;;;8.00;67.10;;;;;;5020306;28;20125;-79
2023/10/27 00:34:02;;;;;;;3.83;2.63;;;8.00;67.10;;;;;;5020813;28;20051;-79
2023/10/27 00:36:28;;;;;;;3.60;2.70;;;8.00;67.00;;;;;;5024443;28;20069;-79
2023/10/27 00:38:53;;;;;;;3.03;2.70;;;8.00;67.10;;;;;;5022168;28;20128;-78
2023/10/27 00:41:19;;;;;;;4.38;2.85;;;8.00;67.10;;;;;;5018490;28;20041;-79
2023/10/27 00:43:45;;;;;;;3.95;2.72;;;8.00;67.10;;;;;;5024327;28;20076;-79
2023/10/27 00:46:12;;;;;;;3.58;2.40;;;8.00;66.90;;;;;;5023393;28;21031;-78
2023/10/27 00:48:37;;;;;;;2.92;2.33;;;8.00;67.20;;;;;;5008678;28;20262;-79
2023/10/27 00:51:07;;;;;;;3.92;2.30;;;8.00;67.20;;;;;;5019273;28;20034;-78
2023/10/27 00:53:33;;;;;;;3.92;2.50;;;8.00;67.20;;;;;;5036075;28;20621;-78
2023/10/27 00:55:59;;;;;;;3.25;2.30;;;8.00;67.10;;;;;;5010550;28;20037;-78
2023/10/27 00:58:26;;;;;;;2.88;2.47;;;8.00;67.10;;;;;;5010785;28;21315;-78
2023/10/27 01:00:56;;;;;;;2.75;2.47;;;8.00;67.10;;;;;;5006493;28;20026;-77
2023/10/27 01:03:23;;;;;;;3.08;2.65;;;8.00;67.00;;;;;;5005155;28;20067;-80
2023/10/27 01:05:49;;;;;;;2.28;2.03;;;8.00;66.90;;;;;;5016223;28;20527;-79
2023/10/27 01:08:15;;;;;;;3.05;2.20;;;8.00;67.00;;;;;;5005930;28;20034;-80
2023/10/27 01:10:41;;;;;;;2.70;2.38;;;8.00;67.10;;;;;;5020530;28;20144;-80
2023/10/27 01:13:07;;;;;;;3.30;2.30;;;8.00;67.10;;;;;;5007285;28;20172;-80
2023/10/27 01:15:33;;;;;;;3.00;2.15;;;7.90;67.10;;;;;;5020760;28;20037;-81
2023/10/27 01:17:59;;;;;;;3.53;2.50;;;7.90;67.80;;;;;;5025075;28;20038;-80
2023/10/27 01:20:25;;;;;;;4.80;2.50;;;8.00;67.20;;;;;;5012643;28;20037;-80
2023/10/27 01:22:51;;;;;;;3.30;2.25;;;8.00;67.20;;;;;;5014254;28;20054;-81
2023/10/27 01:25:17;;;;;;;2.97;2.20;;;8.00;67.40;;;;;;5023217;28;20040;-82
2023/10/27 01:27:44;;;;;;;2.90;2.08;;;8.00;67.40;;;;;;5021097;28;20033;-78
2023/10/27 01:30:10;;;;;;;2.28;1.73;;;8.00;67.50;;;;;;5024254;28;20036;-78
2023/10/27 01:32:37;;;;;;;3.05;1.92;;;8.00;67.30;;;;;;5011245;28;20639;-78
2023/10/27 01:35:04;;;;;;;3.58;1.90;;;7.90;67.30;;;;;;5016742;28;20037;-78
2023/10/27 01:37:30;;;;;;;2.30;1.80;;;8.00;67.30;;;;;;5030178;28;20084;-78
2023/10/27 01:39:56;;;;;;;3.13;1.83;;;8.00;67.30;;;;;;5003851;28;20038;-78
2023/10/27 01:42:23;;;;;;;2.75;1.77;;;7.90;67.30;;;;;;4990280;28;20539;-79
2023/10/27 01:44:49;;;;;;;2.00;1.70;;;7.90;67.70;;;;;;5020578;28;20417;-78
2023/10/27 01:47:15;;;;;;;2.20;1.63;;;7.90;67.10;;;;;;5023592;28;20045;-78
2023/10/27 01:49:41;;;;;;;2.47;1.92;;;8.00;66.90;;;;;;5022712;28;20041;-78
2023/10/27 01:52:07;;;;;;;2.85;1.70;;;7.90;66.90;;;;;;5039561;28;20060;-78
2023/10/27 01:54:33;;;;;;;2.53;1.80;;;7.90;66.90;;;;;;5023980;28;20048;-78
2023/10/27 01:56:59;;;;;;;2.97;1.98;;;8.00;67.10;;;;;;5011158;28;20033;-78
2023/10/27 01:59:25;;;;;;;3.20;1.60;;;8.00;67.00;;;;;;5026714;28;20558;-78
2023/10/27 02:01:51;;;;;;;2.10;1.90;;;7.90;67.10;;;;;;5027001;28;20510;-78
2023/10/27 02:04:20;;;;;;;3.22;1.80;;;8.00;67.10;;;;;;5026967;28;20029;-78
2023/10/27 02:06:46;;;;;;;2.55;1.92;;;7.90;67.00;;;;;;5024590;28;20029;-78
2023/10/27 02:09:12;;;;;;;2.67;2.17;;;7.90;66.90;;;;;;5027376;28;20041;-78
2023/10/27 02:11:38;;;;;;;2.90;1.80;;;7.90;66.90;;;;;;5026608;28;20639;-77
2023/10/27 02:14:04;;;;;;;3.10;1.92;;;8.00;66.90;;;;;;5001963;28;20034;-82
2023/10/27 02:16:30;;;;;;;3.92;1.95;;;8.00;66.90;;;;;;5000209;28;20395;-84
2023/10/27 02:18:56;;;;;;;1.80;1.70;;;7.90;66.80;;;;;;5023615;28;20025;-83
2023/10/27 02:21:22;;;;;;;2.22;1.77;;;7.90;66.90;;;;;;5012219;28;20043;-82
2023/10/27 02:23:48;;;;;;;2.75;2.22;;;7.90;66.90;;;;;;5027169;28;20053;-82
2023/10/27 02:26:14;;;;;;;1.70;1.60;;;8.00;67.10;;;;;;5003270;28;20042;-79
2023/10/27 02:28:40;;;;;;;2.10;1.90;;;7.90;67.00;;;;;;5024218;28;20038;-77
2023/10/27 02:31:06;;;;;;;2.13;1.90;;;7.90;67.10;;;;;;5026209;28;20060;-77
2023/10/27 02:33:32;;;;;;;2.35;2.08;;;7.90;67.10;;;;;;5024166;28;20037;-77
2023/10/27 02:35:57;;;;;;;2.10;1.90;;;7.90;67.10;;;;;;5024530;28;20095;-77
2023/10/27 02:38:23;;;;;;;2.28;1.80;;;7.90;67.10;;;;;;5015264;28;20521;-77
2023/10/27 02:40:49;;;;;;;2.58;2.03;;;8.00;67.00;;;;;;5012111;28;20034;-77
2023/10/27 02:43:15;;;;;;;2.78;2.00;;;7.90;66.90;;;;;;5026455;28;20037;-78
2023/10/27 02:45:41;;;;;;;4.07;2.22;;;7.90;66.80;;;;;;5026708;28;20072;-77
2023/10/27 02:48:07;;;;;;;2.28;1.85;;;7.90;66.80;;;;;;5021556;28;20480;-77
2023/10/27 02:50:33;;;;;;;2.33;2.10;;;7.90;67.00;;;;;;5020803;28;20042;-77
2023/10/27 02:52:59;;;;;;;2.28;1.80;;;7.90;66.90;;;;;;5017865;28;20034;-77
2023/10/27 02:55:25;;;;;;;3.50;2.00;;;7.90;66.90;;;;;;5011226;28;20459;-77
2023/10/27 02:57:51;;;;;;;2.10;1.85;;;7.90;67.00;;;;;;5025037;28;20041;-78
2023/10/27 03:00:19;;;;;;;2.85;1.98;;;7.90;66.90;;;;;;5023427;28;20033;-78
2023/10/27 03:02:45;;;;;;;3.30;2.00;;;7.90;66.90;;;;;;5025266;28;20136;-77
2023/10/27 03:05:11;;;;;;;2.60;2.00;;;7.90;66.80;;;;;;5021316;28;20038;-77
2023/10/27 03:07:37;;;;;;;2.13;1.92;;;7.90;66.80;;;;;;5036570;28;20522;-78
2023/10/27 03:10:04;;;;;;;1.95;1.60;;;7.90;66.80;;;;;;5024897;28;20026;-80
2023/10/27 03:12:30;;;;;;;2.50;1.90;;;7.90;66.70;;;;;;5026556;28;20029;-81
2023/10/27 03:14:56;;;;;;;2.22;1.70;;;7.90;66.80;;;;;;5012091;28;20468;-82
2023/10/27 03:17:22;;;;;;;2.25;2.05;;;7.90;66.90;;;;;;5017989;28;20048;-81
2023/10/27 03:19:49;;;;;;;2.00;1.70;;;7.90;66.90;;;;;;5022734;28;20069;-80
2023/10/27 03:22:15;;;;;;;2.10;1.88;;;7.90;67.00;;;;;;5021323;28;20041;-79
2023/10/27 03:24:41;;;;;;;2.30;1.88;;;7.90;67.20;;;;;;5024495;28;20565;-80
2023/10/27 03:27:06;;;;;;;1.92;1.70;;;7.90;67.20;;;;;;5038680;28;20033;-79
2023/10/27 03:29:33;;;;;;;2.65;1.95;;;7.90;67.30;;;;;;5011888;28;20034;-83
2023/10/27 03:32:00;;;;;;;2.35;1.80;;;7.90;67.30;;;;;;4980825;28;20398;-81
2023/10/27 03:34:26;;;;;;;1.80;1.67;;;7.90;67.30;;;;;;5007636;28;20044;-79
2023/10/27 03:36:52;;;;;;;2.55;1.98;;;7.90;67.10;;;;;;5022180;28;20121;-80
2023/10/27 03:39:18;;;;;;;2.90;1.98;;;7.90;67.00;;;;;;5024047;28;20124;-80
2023/10/27 03:41:44;;;;;;;2.97;1.83;;;7.90;66.90;;;;;;5024936;28;20042;-80
2023/10/27 03:44:10;;;;;;;3.03;1.80;;;7.90;66.90;;;;;;5024474;28;20040;-82
2023/10/27 03:46:37;;;;;;;3.10;1.90;;;7.90;66.90;;;;;;5024297;28;20427;-79
2023/10/27 03:49:03;;;;;;;3.40;2.17;;;7.90;67.00;;;;;;5023148;28;20033;-80
2023/10/27 03:51:29;;;;;;;3.35;2.00;;;7.90;67.00;;;;;;5023450;28;20151;-81
2023/10/27 03:53:55;;;;;;;2.15;1.95;;;7.90;67.10;;;;;;5008181;28;20511;-87
2023/10/27 03:56:21;;;;;;;2.80;1.95;;;7.90;67.10;;;;;;5001898;28;20484;-79
2023/10/27 03:58:46;;;;;;;2.67;1.90;;;7.90;67.00;;;;;;5021942;28;20032;-78
2023/10/27 04:01:12;;;;;;;1.88;1.70;;;7.80;66.90;;;;;;5019874;28;20411;-79
2023/10/27 04:03:38;;;;;;;2.90;1.90;;;7.90;67.00;;;;;;5036915;28;20044;-79
2023/10/27 04:06:04;;;;;;;3.05;1.63;;;7.90;67.10;;;;;;5007073;28;20041;-77
2023/10/27 04:08:31;;;;;;;2.58;1.55;;;7.90;67.10;;;;;;5015899;28;20157;-76
2023/10/27 04:10:57;;;;;;;3.10;1.80;;;7.90;67.00;;;;;;5022511;28;20091;-78
2023/10/27 04:13:23;;;;;;;2.42;1.50;;;7.90;67.10;;;;;;5022975;28;20060;-77
2023/10/27 04:15:49;;;;;;;1.55;1.45;;;7.90;67.30;;;;;;5020492;28;20048;-78
2023/10/27 04:18:14;;;;;;;3.08;1.60;;;7.90;67.10;;;;;;5021057;28;20026;-78
2023/10/27 04:20:40;;;;;;;1.73;1.63;;;7.80;67.00;;;;;;5019820;28;20033;-81
2023/10/27 04:23:08;;;;;;;1.70;1.60;;;7.90;67.10;;;;;;5018827;28;20058;-79
2023/10/27 04:25:35;;;;;;;1.98;1.88;;;7.80;67.00;;;;;;5021736;28;20036;-79
2023/10/27 04:28:03;;;;;;;2.55;1.50;;;7.80;67.00;;;;;;5004043;28;20181;-81
2023/10/27 04:30:31;;;;;;;1.67;1.52;;;7.80;67.20;;;;;;5006750;28;20029;-80
2023/10/27 04:32:57;;;;;;;1.63;1.52;;;7.80;67.00;;;;;;5021507;28;20530;-76
2023/10/27 04:35:24;;;;;;;2.38;1.70;;;7.80;67.00;;;;;;5023116;28;20100;-77
2023/10/27 04:37:50;;;;;;;1.80;1.70;;;7.80;67.00;;;;;;5019645;28;20042;-75
2023/10/27 04:40:16;;;;;;;2.00;1.80;;;7.80;67.20;;;;;;5036518;28;20037;-79
2023/10/27 04:42:42;;;;;;;4.13;1.95;;;7.80;67.40;;;;;;5023897;28;20057;-78
2023/10/27 04:45:08;;;;;;;3.47;1.73;;;7.80;67.70;;;;;;5004224;28;20076;-79
2023/10/27 04:47:34;;;;;;;2.05;1.88;;;7.90;68.30;;;;;;5016752;28;20044;-79
2023/10/27 04:50:00;;;;;;;2.90;2.40;;;7.80;68.50;;;;;;5005492;28;20041;-79
2023/10/27 04:52:26;;;;;;;4.88;2.00;;;7.80;68.80;;;;;;5009808;28;20072;-80
2023/10/27 04:54:53;;;;;;;2.42;2.00;;;7.80;68.90;;;;;;5019795;28;20129;-81
2023/10/27 04:57:19;;;;;;;2.97;1.90;;;7.80;69.10;;;;;;5008107;28;20037;-79
2023/10/27 04:59:45;;;;;;;4.00;2.35;;;7.80;69.20;;;;;;5035078;28;20030;-83
2023/10/27 05:02:12;;;;;;;3.35;2.05;;;7.80;69.30;;;;;;5019933;28;20040;-81
2023/10/27 05:04:38;;;;;;;3.90;2.10;;;7.80;69.20;;;;;;5015615;28;20034;-82
2023/10/27 05:07:05;;;;;;;3.28;2.35;;;7.80;69.30;;;;;;5007681;28;20034;-81
2023/10/27 05:09:32;;;;;;;4.85;2.70;;;7.80;69.40;;;;;;5019875;28;20046;-81
2023/10/27 05:11:58;;;;;;;4.15;2.70;;;7.80;69.80;;;;;;5023660;28;20037;-80
2023/10/27 05:14:24;;;;;;;4.55;2.15;;;7.80;69.90;;;;;;5023236;28;20075;-81
2023/10/27 05:16:50;;;;;;;5.28;2.20;;;7.90;70.00;;;;;;5015823;28;20057;-81
2023/10/27 05:19:16;;;;;;;4.43;2.50;;;7.80;69.90;;;;;;5010148;28;20036;-81
2023/10/27 05:21:42;;;;;;;5.25;2.53;;;7.80;69.90;;;;;;5022677;28;20678;-80
2023/10/27 05:24:09;;;;;;;4.07;2.60;;;7.90;69.90;;;;;;4992491;28;20388;-80
2023/10/27 05:26:35;;;;;;;4.43;2.53;;;7.80;69.90;;;;;;5019489;28;20492;-81
2023/10/27 05:29:01;;;;;;;2.67;2.40;;;7.90;69.80;;;;;;5027774;28;20127;-81
2023/10/27 05:31:27;;;;;;;3.42;2.30;;;7.90;69.70;;;;;;5040149;28;20368;-81
2023/10/27 05:33:54;;;;;;;4.78;2.53;;;7.90;69.50;;;;;;5022777;28;20030;-81
2023/10/27 05:36:20;;;;;;;3.05;2.50;;;7.90;69.50;;;;;;5009566;28;20026;-80
2023/10/27 05:38:46;;;;;;;4.18;2.53;;;7.90;69.50;;;;;;5020947;28;20045;-80
2023/10/27 05:41:14;;;;;;;3.08;2.05;;;7.80;69.40;;;;;;5024084;28;20400;-81
2023/10/27 05:43:40;;;;;;;2.53;2.10;;;7.90;69.50;;;;;;5023889;28;20033;-80
2023/10/27 05:46:06;;;;;;;4.40;2.00;;;7.90;69.80;;;;;;5021694;28;20400;-80
2023/10/27 05:48:32;;;;;;;3.17;2.22;;;7.90;69.60;;;;;;5009843;28;20034;-80
2023/10/27 05:50:58;;;;;;;3.58;2.00;;;7.90;70.10;;;;;;5021342;28;20029;-87
2023/10/27 05:53:25;;;;;;;2.45;2.10;;;7.90;69.20;;;;;;5015665;28;20041;-88
2023/10/27 05:55:51;;;;;;;2.33;1.92;;;7.90;69.00;;;;;;5017261;28;20349;-74
2023/10/27 05:58:17;;;;;;;7.70;2.50;;;7.90;72.20;;;;;;5034182;28;20450;-74
2023/10/27 06:00:43;;;;;;;3.05;2.13;;;8.10;74.10;;;;;;5029500;28;20087;-74
2023/10/27 06:03:09;;;;;;;3.65;1.73;;;8.20;74.30;;;;;;5031235;28;20488;-74
2023/10/27 06:05:35;;;;;;;5.38;1.58;;;8.40;74.40;;;;;;5032591;28;20047;-74
2023/10/27 06:08:02;;;;;;;2.08;1.73;;;8.50;74.90;;;;;;5031771;28;20033;-74
2023/10/27 06:10:28;;;;;;;3.33;2.08;;;8.60;74.10;;;;;;5031243;28;20072;-74
2023/10/27 06:12:54;;;;;;;2.30;1.98;;;8.70;73.80;;;;;;5033829;28;20503;-74
2023/10/27 06:15:20;;;;;;;4.15;2.30;;;8.90;73.30;;;;;;5031572;28;20037;-84
2023/10/27 06:17:46;;;;;;;4.53;1.98;;;9.00;73.30;;;;;;5016324;28;20046;-85
2023/10/27 06:20:13;;;;;;;2.25;1.98;;;9.00;72.20;;;;;;5021047;28;20096;-84
2023/10/27 06:22:39;;;;;;;2.45;2.25;;;9.00;70.70;;;;;;5011918;28;20049;-84
2023/10/27 06:25:05;;;;;;;2.97;2.17;;;9.00;69.50;;;;;;5020666;28;20034;-84
2023/10/27 06:27:31;;;;;;;2.67;2.42;;;9.00;68.60;;;;;;5010606;28;20128;-84
2023/10/27 06:29:57;;;;;;;7.75;2.60;;;9.00;68.10;;;;;;5009047;28;20121;-84
2023/10/27 06:32:23;;;;;;;3.22;2.45;;;8.90;67.60;;;;;;5012146;28;20073;-83
2023/10/27 06:34:49;;;;;;;3.13;2.28;;;8.90;67.40;;;;;;4998971;28;20063;-83
2023/10/27 06:37:15;;;;;;;2.35;2.15;;;8.90;67.30;;;;;;5009248;28;20034;-82
2023/10/27 06:39:41;;;;;;;4.68;2.25;;;8.90;66.90;;;;;;5022956;28;20079;-83
2023/10/27 06:42:07;;;;;;;2.78;2.25;;;8.90;66.90;;;;;;5022787;28;20099;-81
2023/10/27 06:44:33;;;;;;;4.03;2.30;;;8.90;66.70;;;;;;5027016;28;20394;-82
2023/10/27 06:46:58;;;;;;;3.10;2.30;;;8.90;67.00;;;;;;5018878;28;20044;-82
2023/10/27 06:49:25;;;;;;;3.40;2.20;;;8.80;66.80;;;;;;5011650;28;20098;-88
2023/10/27 06:51:51;;;;;;;2.88;2.33;;;8.90;66.90;;;;;;5021537;28;20038;-82
2023/10/27 06:54:17;;;;;;;4.00;2.33;;;8.90;66.80;;;;;;5026319;28;20496;-82
2023/10/27 06:56:43;;;;;;;6.75;2.83;;;8.80;66.70;;;;;;5020748;28;20050;-82
2023/10/27 06:59:09;;;;;;;3.97;2.63;;;8.80;66.80;;;;;;5019138;28;20405;-82
2023/10/27 07:01:36;;;;;;;2.60;2.35;;;8.80;66.70;;;;;;5008337;28;20034;-85
2023/10/27 07:04:02;;;;;;;4.65;2.67;;;8.80;66.80;;;;;;5026439;28;20033;-83
2023/10/27 07:06:28;;;;;;;2.60;2.40;;;8.80;66.70;;;;;;5024363;28;20083;-84
2023/10/27 07:08:54;;;;;;;2.50;2.28;;;8.80;66.60;;;;;;5013290;28;20030;-83
2023/10/27 07:11:20;;;;;;;4.82;2.70;;;8.80;66.40;;;;;;5015370;28;20198;-83
2023/10/27 07:13:46;;;;;;;2.90;2.35;;;8.70;66.40;;;;;;5015677;28;20042;-83
2023/10/27 07:16:12;;;;;;;2.97;2.40;;;8.70;66.60;;;;;;5008757;28;20080;-83
2023/10/27 07:18:37;;;;;;;3.97;2.72;;;8.70;66.70;;;;;;5003545;28;20033;-83
2023/10/27 07:21:07;;;;;;;2.88;2.50;;;8.70;66.80;;;;;;5008173;28;20036;-82
2023/10/27 07:23:35;;;;;;;3.55;2.55;;;8.70;66.60;;;;;;5020852;28;20046;-81
2023/10/27 07:26:09;;;;;;;2.78;2.30;;;8.70;66.40;;;;;;5028445;28;20079;-82
2023/10/27 07:28:35;;;;;;;2.90;2.70;;;8.70;66.40;;;;;;5009179;28;20180;-82
2023/10/27 07:31:01;;;;;;;3.35;2.55;;;8.70;66.40;;;;;;5020589;28;20124;-81
2023/10/27 07:33:27;;;;;;;2.90;2.53;;;8.70;66.40;;;;;;4995340;28;20472;-82
2023/10/27 07:35:53;;;;;;;3.83;2.55;;;8.60;66.20;;;;;;5017239;28;20034;-84
2023/10/27 07:38:19;;;;;;;2.67;2.40;;;8.60;66.30;;;;;;5022163;28;20502;-83
2023/10/27 07:40:45;;;;;;;4.45;2.30;;;8.60;66.50;;;;;;5020448;28;20040;-83
2023/10/27 07:43:11;;;;;;;2.85;2.58;;;8.60;66.30;;;;;;5021526;28;20038;-84
2023/10/27 07:45:37;;;;;;;2.70;2.20;;;8.60;66.20;;;;;;5022544;28;20021;-83
2023/10/27 07:48:03;;;;;;;3.85;2.40;;;8.60;66.20;;;;;;5023118;28;20042;-81
2023/10/27 07:50:29;;;;;;;3.15;2.20;;;8.50;66.00;;;;;;5002509;28;20052;-82
2023/10/27 07:52:55;;;;;;;2.97;2.25;;;8.60;66.20;;;;;;5020234;28;20052;-81
2023/10/27 07:55:21;;;;;;;3.08;2.50;;;8.60;66.30;;;;;;5021737;28;20037;-81
2023/10/27 07:57:47;;;;;;;3.05;2.42;;;8.60;66.30;;;;;;5022092;28;20171;-81
2023/10/27 08:00:14;;;;;;;4.00;2.28;;;8.50;66.30;;;;;;5022773;28;20057;-81
2023/10/27 08:02:40;;;;;;;2.72;2.10;;;8.50;66.10;;;;;;4996852;28;20129;-81
2023/10/27 08:05:06;;;;;;;3.17;2.72;;;8.50;66.20;;;;;;5011342;28;20144;-80
2023/10/27 08:07:32;;;;;;;2.63;2.38;;;8.50;66.10;;;;;;5020854;28;20033;-82
2023/10/27 08:09:58;;;;;;;3.28;2.28;;;8.50;66.20;;;;;;5020504;28;20047;-81
2023/10/27 08:12:24;;;;;;;2.47;2.00;;;8.50;66.40;;;;;;5021100;28;20033;-81
2023/10/27 08:14:50;;;;;;;3.67;2.42;;;8.50;66.40;;;;;;5022497;28;20025;-79
2023/10/27 08:17:16;;;;;;;4.40;2.55;;;8.40;66.50;;;;;;5016674;28;20034;-79
2023/10/27 08:19:42;;;;;;;2.20;2.00;;;8.40;66.30;;;;;;5020070;28;20048;-78
2023/10/27 08:22:09;;;;;;;3.00;2.20;;;8.40;65.50;;;;;;5018830;28;20586;-79
2023/10/27 08:24:36;;;;;;;2.45;2.25;;;8.30;64.90;;;;;;5022020;28;20041;-79
2023/10/27 08:27:02;;;;;;;3.65;2.50;;;8.30;64.50;;;;;;5020969;28;20055;-78
2023/10/27 08:29:28;;;;;;;2.50;2.30;;;8.30;64.20;;;;;;5020930;28;20037;-79
2023/10/27 08:31:54;;;;;;;1.90;1.60;;;8.20;64.00;;;;;;5014387;28;20046;-79
2023/10/27 08:34:21;;;;;;;3.35;2.33;;;8.20;63.80;;;;;;4995427;28;20080;-78
2023/10/27 08:36:47;;;;;;;2.63;2.30;;;8.10;63.60;;;;;;5019115;28;20034;-78
2023/10/27 08:39:13;;;;;;;3.03;2.20;;;8.10;63.50;;;;;;5006577;28;20050;-78
2023/10/27 08:41:40;;;;;;;2.10;1.90;;;8.10;63.50;;;;;;5013741;28;20041;-78
2023/10/27 08:44:07;;;;;;;2.08;1.90;;;8.00;63.50;;;;;;5018744;28;20049;-79
2023/10/27 08:46:34;;;;;;;2.40;2.03;;;8.00;63.50;;;;;;5013890;28;20433;-77
2023/10/27 08:48:59;;;;;;;1.92;1.83;;;7.90;63.50;;;;;;5004945;28;20040;-78
2023/10/27 08:51:28;;;;;;;2.40;2.20;;;8.00;63.70;;;;;;5016301;28;20030;-80
2023/10/27 08:53:54;;;;;;;3.22;2.10;;;7.90;63.60;;;;;;5018639;28;20033;-82
2023/10/27 08:56:20;;;;;;;2.30;2.08;;;7.90;63.60;;;;;;5019976;28;20072;-81
2023/10/27 08:58:51;;;;;;;3.22;2.17;;;7.80;63.60;;;;;;5013054;28;20037;-80
2023/10/27 09:01:17;;;;;;;3.47;2.20;;;7.90;63.60;;;;;;5004919;28;20034;-80
2023/10/27 09:04:09;;;;;;;2.30;1.92;;;7.80;63.50;;;;;;5005820;28;20822;-79
2023/10/27 09:06:37;;;;;;;2.42;2.20;;;7.80;63.60;;;;;;5018103;28;20046;-80
2023/10/27 09:09:09;;;;;;;2.65;2.28;;;7.80;63.80;;;;;;5018951;28;20046;-78
2023/10/27 09:11:43;;;;;;;3.25;2.60;;;7.80;63.70;;;;;;5017421;28;20034;-80
2023/10/27 09:14:23;;;;;;;2.67;2.42;;;7.70;63.80;;;;;;5021645;28;20500;-78
2023/10/27 09:16:51;;;;;;;3.10;2.55;;;7.70;63.80;;;;;;5018810;28;20037;-79
2023/10/27 09:19:24;;;;;;;4.28;2.70;;;7.70;63.80;;;;;;5018889;28;20033;-78
2023/10/27 09:21:52;;;;;;;3.72;2.60;;;7.60;63.90;;;;;;5017782;28;20026;-80
2023/10/27 09:24:36;;;;;;;2.40;2.17;;;7.60;63.90;;;;;;5021515;28;20037;-79
2023/10/27 09:27:02;;;;;;;2.92;2.55;;;7.60;64.00;;;;;;5021478;28;20175;-80
2023/10/27 09:29:31;;;;;;;2.78;2.28;;;7.60;64.00;;;;;;5017064;28;20091;-78
2023/10/27 09:31:58;;;;;;;2.78;2.40;;;7.60;64.10;;;;;;5009877;28;20515;-81
2023/10/27 09:34:29;;;;;;;3.58;2.30;;;7.50;64.00;;;;;;5014534;28;20038;-81
2023/10/27 09:36:59;;;;;;;2.40;2.20;;;7.50;64.20;;;;;;4984200;28;20029;-81
2023/10/27 09:39:26;;;;;;;3.13;2.45;;;7.50;64.20;;;;;;5018708;28;20084;-80
2023/10/27 09:41:55;;;;;;;2.97;2.67;;;7.50;64.20;;;;;;5018615;28;20045;-81
2023/10/27 09:44:31;;;;;;;3.50;2.30;;;7.40;64.20;;;;;;5021003;28;20577;-79
2023/10/27 09:47:01;;;;;;;4.03;2.95;;;7.50;64.40;;;;;;5019783;28;20092;-79
2023/10/27 09:49:33;;;;;;;2.75;2.50;;;7.40;64.30;;;;;;5016870;28;20089;-79
2023/10/27 09:52:00;;;;;;;2.92;2.53;;;7.40;64.40;;;;;;5006944;28;20473;-80
2023/10/27 09:54:31;;;;;;;2.60;2.40;;;7.40;64.60;;;;;;5020744;28;20026;-79
2023/10/27 09:57:00;;;;;;;3.58;2.95;;;7.40;64.60;;;;;;5019791;28;20072;-80
2023/10/27 09:59:28;;;;;;;3.00;2.50;;;7.40;64.70;;;;;;5020682;28;20033;-80
2023/10/27 10:01:55;;;;;;;3.15;2.58;;;7.30;64.80;;;;;;5020153;28;20057;-81
2023/10/27 10:04:52;;;;;;;2.03;1.92;;;7.30;64.80;;;;;;5023707;28;20127;-80
2023/10/27 10:07:32;;;;;;;2.80;2.20;;;7.30;65.00;;;;;;5024557;28;20033;-81
2023/10/27 10:10:15;;;;;;;3.38;2.80;;;7.30;65.10;;;;;;5023851;28;20037;-81
2023/10/27 10:13:05;;;;;;;3.03;2.38;;;7.30;65.20;;;;;;5023396;28;20030;-82
2023/10/27 10:15:36;;;;;;;3.17;2.58;;;7.20;65.20;;;;;;5023343;28;20033;-83
2023/10/27 10:18:04;;;;;;;3.13;2.50;;;7.30;65.50;;;;;;5022581;28;20288;-81
2023/10/27 10:20:47;;;;;;;3.22;2.40;;;7.30;65.60;;;;;;5028596;28;20132;-81
2023/10/27 10:23:14;;;;;;;3.28;2.70;;;7.20;65.50;;;;;;5015452;28;20406;-83
2023/10/27 10:25:57;;;;;;;2.75;2.55;;;7.20;65.60;;;;;;5020146;28;20037;-80
2023/10/27 10:28:29;;;;;;;3.72;2.75;;;7.20;65.70;;;;;;5023420;28;20420;-80
2023/10/27 10:31:07;;;;;;;3.78;2.47;;;7.20;65.90;;;;;;5024015;28;20542;-79
2023/10/27 10:33:38;;;;;;;3.35;2.58;;;7.20;65.90;;;;;;5027100;28;20033;-80
2023/10/27 10:36:21;;;;;;;3.95;2.75;;;7.20;65.90;;;;;;5008297;28;20902;-79
2023/10/27 10:38:58;;;;;;;2.55;2.35;;;7.20;65.90;;;;;;5020026;28;20365;-80
2023/10/27 10:41:43;;;;;;;3.33;2.78;;;7.20;66.00;;;;;;5021137;28;20192;-80
2023/10/27 10:44:11;;;;;;;2.70;2.50;;;7.10;65.90;;;;;;5023584;28;20083;-79
2023/10/27 10:46:37;;;;;;;3.08;2.70;;;7.10;65.90;;;;;;5022227;28;20545;-81
2023/10/27 10:49:03;;;;;;;2.90;2.60;;;7.20;66.00;;;;;;5020976;28;20029;-77
2023/10/27 10:51:30;;;;;;;2.75;2.38;;;7.10;66.00;;;;;;5008030;28;20552;-80
2023/10/27 10:53:57;;;;;;;4.30;2.35;;;7.10;66.30;;;;;;5020047;28;20053;-81
2023/10/27 10:56:24;;;;;;;2.75;2.55;;;7.10;66.30;;;;;;5011902;28;20926;-79
2023/10/27 10:58:50;;;;;;;3.10;2.80;;;7.10;66.30;;;;;;5014270;28;20500;-80
2023/10/27 11:01:19;;;;;;;3.40;2.40;;;7.10;66.20;;;;;;5018944;28;20041;-79
2023/10/27 11:03:52;;;;;;;3.72;2.50;;;7.10;66.30;;;;;;5021243;28;20040;-79
2023/10/27 11:06:22;;;;;;;3.67;2.60;;;7.10;66.50;;;;;;5023304;28;20607;-79
2023/10/27 11:08:49;;;;;;;2.67;2.30;;;7.10;66.60;;;;;;5009587;28;20041;-80
2023/10/27 11:11:18;;;;;;;2.88;2.58;;;7.10;66.60;;;;;;5013583;28;20045;-80
2023/10/27 11:13:57;;;;;;;2.88;2.50;;;7.10;66.60;;;;;;5014496;28;20042;-78
2023/10/27 11:16:27;;;;;;;2.85;2.45;;;7.10;66.60;;;;;;5008491;28;20040;-80
2023/10/27 11:19:02;;;;;;;3.63;2.35;;;7.10;66.60;;;;;;5020578;28;20022;-79
2023/10/27 11:21:30;;;;;;;2.60;2.40;;;7.10;66.70;;;;;;5021738;28;20033;-80
2023/10/27 11:23:56;;;;;;;4.15;2.40;;;7.10;66.70;;;;;;5021493;28;20044;-81
2023/10/27 11:26:26;;;;;;;2.90;2.28;;;7.00;66.70;;;;;;5021943;28;20039;-80
2023/10/27 11:28:54;;;;;;;2.72;2.42;;;7.10;66.80;;;;;;5022108;28;20092;-80
2023/10/27 11:31:23;;;;;;;2.67;2.40;;;7.00;66.80;;;;;;5020395;28;20061;-81
2023/10/27 11:34:03;;;;;;;2.50;2.30;;;7.00;66.80;;;;;;5004679;28;20084;-80
2023/10/27 11:36:35;;;;;;;2.72;2.40;;;7.00;66.90;;;;;;5024412;28;20091;-80
2023/10/27 11:39:33;;;;;;;2.72;2.45;;;7.00;67.00;;;;;;5021898;28;20125;-79
2023/10/27 11:42:00;;;;;;;2.90;2.60;;;7.00;67.10;;;;;;5019814;28;20060;-81
2023/10/27 11:44:45;;;;;;;3.58;2.67;;;7.00;67.10;;;;;;5022991;28;20031;-78
2023/10/27 11:47:11;;;;;;;2.40;2.20;;;7.00;67.20;;;;;;5011791;28;20037;-81
2023/10/27 11:49:37;;;;;;;2.85;2.40;;;7.00;67.20;;;;;;5014896;28;20056;-81
2023/10/27 11:52:04;;;;;;;2.50;2.30;;;7.00;67.20;;;;;;5007609;28;20848;-80
2023/10/27 11:54:30;;;;;;;3.63;2.60;;;7.00;67.40;;;;;;5021987;28;20102;-80
2023/10/27 11:56:56;;;;;;;2.97;2.70;;;7.00;67.30;;;;;;5020182;28;20084;-79
2023/10/27 11:59:26;;;;;;;2.88;2.60;;;7.00;67.40;;;;;;5022857;28;20061;-81
2023/10/27 12:01:52;;;;;;;3.38;2.60;;;7.00;67.40;;;;;;5021380;28;20073;-81
2023/10/27 12:04:19;;;;;;;2.53;2.33;;;7.00;67.40;;;;;;5021748;28;20030;-81
2023/10/27 12:06:45;;;;;;;5.97;3.20;;;7.00;67.50;;;;;;5021119;28;20030;-80
2023/10/27 12:09:13;;;;;;;3.25;2.63;;;7.00;67.60;;;;;;5007820;28;20370;-80
2023/10/27 12:11:43;;;;;;;3.10;2.80;;;7.00;67.60;;;;;;5015178;28;20140;-79
2023/10/27 12:14:10;;;;;;;3.17;2.47;;;7.00;67.60;;;;;;5019999;28;20053;-80
2023/10/27 12:16:36;;;;;;;2.90;2.58;;;7.00;67.70;;;;;;5021051;28;20032;-80
2023/10/27 12:19:02;;;;;;;2.95;2.40;;;7.00;67.80;;;;;;5007451;28;20037;-79
2023/10/27 12:21:28;;;;;;;4.55;2.90;;;7.00;67.90;;;;;;5021186;28;20033;-80
2023/10/27 12:23:54;;;;;;;3.85;2.90;;;7.00;67.80;;;;;;5020803;28;20034;-81
2023/10/27 12:26:21;;;;;;;3.03;2.75;;;7.00;67.80;;;;;;5021524;28;20096;-80
2023/10/27 12:28:47;;;;;;;4.40;3.28;;;6.90;67.70;;;;;;5020835;28;20029;-80
2023/10/27 12:31:14;;;;;;;3.70;2.95;;;6.90;67.70;;;;;;5024550;28;20401;-83
2023/10/27 12:33:41;;;;;;;3.25;2.90;;;6.90;67.80;;;;;;5019171;28;20110;-81
2023/10/27 12:36:09;;;;;;;4.00;2.92;;;6.90;67.90;;;;;;5022455;28;20177;-83
2023/10/27 12:38:36;;;;;;;3.42;3.13;;;6.90;68.10;;;;;;5020314;28;20033;-82
2023/10/27 12:41:02;;;;;;;3.38;3.08;;;6.90;68.10;;;;;;5020029;28;20044;-84
2023/10/27 12:43:31;;;;;;;4.68;3.20;;;6.90;68.10;;;;;;5020828;28;20060;-83
2023/10/27 12:46:01;;;;;;;3.08;2.83;;;6.90;68.10;;;;;;5019212;28;20037;-81
2023/10/27 12:48:27;;;;;;;3.88;2.85;;;6.90;68.10;;;;;;4992326;28;20473;-79
2023/10/27 12:50:54;;;;;;;2.90;2.67;;;6.90;68.20;;;;;;5006927;28;20034;-81
2023/10/27 12:53:19;;;;;;;3.17;2.88;;;6.90;68.10;;;;;;5029566;28;20038;-80
2023/10/27 12:55:46;;;;;;;2.47;2.28;;;6.90;68.10;;;;;;5030779;28;20523;-81
2023/10/27 12:58:12;;;;;;;2.90;2.70;;;6.90;68.00;;;;;;5013271;28;20196;-81
2023/10/27 13:00:39;;;;;;;3.00;2.65;;;6.90;68.00;;;;;;5023079;28;20037;-86